| time (UTC) | temp F | wind direction | speed knots | gust knots | rain 1hr in | rain 24hr in | rain mn in | humidity % | barometer mb |
| 20260507091514 | 49 | 290 | 0.9 | 3.5 | 0.00 | 0.23 | 0.06 | 78 | 1011.2 |
| 20260507091014 | 49 | 245 | 0.9 | 2.6 | 0.00 | 0.23 | 0.06 | 80 | 1011.3 |
| 20260507090008 | 49 | 12 | 0.9 | 3.5 | 0.00 | 0.23 | 0.06 | 82 | 1011.1 |
| 20260507085501 | 49 | 347 | 0.9 | 3.5 | 0.00 | 0.23 | 0.06 | 83 | 1011.1 |
| 20260507084955 | 50 | 320 | 1.7 | 4.3 | 0.00 | 0.23 | 0.06 | 84 | 1011.0 |
| 20260507084455 | 49 | 313 | 1.7 | 4.3 | 0.00 | 0.23 | 0.06 | 85 | 1011.2 |
| 20260507083955 | 50 | 271 | 1.7 | 4.3 | 0.00 | 0.23 | 0.06 | 87 | 1010.9 |
| 20260507083455 | 50 | 307 | 1.7 | 7.0 | 0.00 | 0.23 | 0.06 | 88 | 1010.9 |
| 20260507082955 | 50 | 314 | 1.7 | 7.0 | 0.00 | 0.23 | 0.06 | 89 | 1010.7 |
| 20260507081956 | 50 | 323 | 0.9 | 4.3 | 0.00 | 0.23 | 0.06 | 90 | 1010.6 |
| 20260507080955 | 50 | 283 | 0.9 | 2.6 | 0.00 | 0.23 | 0.06 | 91 | 1010.5 |
| 20260507080456 | 50 | 311 | 0.0 | 2.6 | 0.00 | 0.23 | 0.06 | 91 | 1010.6 |
| 20260507075952 | 50 | 323 | 0.0 | 1.7 | 0.00 | 0.23 | 0.06 | 91 | 1010.6 |
| 20260507075451 | 50 | 323 | 0.9 | 1.7 | 0.00 | 0.23 | 0.06 | 91 | 1010.6 |
| 20260507074951 | 50 | 331 | 0.9 | 1.7 | 0.01 | 0.23 | 0.06 | 91 | 1010.6 |
| 20260507074451 | 50 | 331 | 0.9 | 2.6 | 0.01 | 0.23 | 0.06 | 91 | 1010.6 |
| 20260507073952 | 50 | 331 | 0.0 | 2.6 | 0.03 | 0.23 | 0.06 | 91 | 1010.4 |
| 20260507073450 | 50 | 355 | 0.0 | 1.7 | 0.04 | 0.23 | 0.06 | 91 | 1010.5 |
| 20260507072953 | 50 | 355 | 0.0 | 0.9 | 0.04 | 0.23 | 0.06 | 91 | 1010.5 |
| 20260507072452 | 50 | 355 | 0.0 | 1.7 | 0.04 | 0.23 | 0.06 | 91 | 1010.5 |
| 20260507071953 | 50 | 355 | 0.0 | 1.7 | 0.05 | 0.23 | 0.06 | 91 | 1010.7 |
| 20260507071448 | 50 | 323 | 0.0 | 1.7 | 0.05 | 0.23 | 0.06 | 91 | 1010.8 |
| 20260507070947 | 51 | 344 | 0.0 | 1.7 | 0.05 | 0.23 | 0.06 | 91 | 1010.8 |
| 20260507070447 | 51 | 317 | 0.0 | 1.7 | 0.05 | 0.23 | 0.06 | 90 | 1010.9 |
| 20260507065947 | 51 | 309 | 0.0 | 0.9 | 0.05 | 0.23 | 0.06 | 90 | 1011.0 |
| 20260507065445 | 51 | 309 | 0.0 | 0.9 | 0.05 | 0.23 | 0.06 | 90 | 1010.8 |
| 20260507064946 | 51 | 5 | 0.0 | 1.7 | 0.04 | 0.22 | 0.06 | 90 | 1010.9 |
| 20260507064444 | 51 | 327 | 0.0 | 1.7 | 0.04 | 0.22 | 0.05 | 89 | 1011.0 |
| 20260507063942 | 51 | 122 | 0.0 | 0.9 | 0.02 | 0.20 | 0.03 | 89 | 1011.1 |
| 20260507063442 | 51 | 72 | 0.0 | 1.7 | 0.01 | 0.19 | 0.02 | 89 | 1010.9 |
| 20260507062938 | 51 | 73 | 0.0 | 3.5 | 0.01 | 0.19 | 0.02 | 88 | 1010.9 |
| 20260507062439 | 51 | 304 | 0.9 | 3.5 | 0.01 | 0.19 | 0.02 | 88 | 1011.0 |
| 20260507061937 | 52 | 300 | 1.7 | 5.2 | 0.00 | 0.18 | 0.01 | 87 | 1011.1 |
| 20260507061437 | 52 | 303 | 1.7 | 5.2 | 0.00 | 0.18 | 0.01 | 87 | 1011.1 |
| 20260507060937 | 52 | 287 | 0.9 | 2.6 | 0.00 | 0.18 | 0.01 | 87 | 1011.1 |
| 20260507060431 | 52 | 296 | 0.9 | 3.5 | 0.00 | 0.18 | 0.01 | 87 | 1010.8 |
| 20260507055925 | 52 | 305 | 0.9 | 3.5 | 0.00 | 0.18 | 0.01 | 87 | 1010.8 |
| 20260507055418 | 53 | 309 | 0.9 | 2.6 | 0.00 | 0.18 | 0.01 | 87 | 1010.9 |
| 20260507054913 | 53 | 299 | 0.9 | 3.5 | 0.00 | 0.18 | 0.01 | 86 | 1010.9 |
| 20260507054408 | 53 | 319 | 1.7 | 3.5 | 0.00 | 0.18 | 0.01 | 87 | 1010.9 |
| 20260507053355 | 53 | 315 | 1.7 | 4.3 | 0.00 | 0.18 | 0.01 | 87 | 1010.8 |
| 20260507052849 | 53 | 29 | 0.9 | 3.5 | 0.00 | 0.18 | 0.01 | 88 | 1010.8 |
| 20260507052343 | 53 | 302 | 0.9 | 1.7 | 0.00 | 0.18 | 0.01 | 88 | 1010.8 |
| 20260507051840 | 53 | 38 | 0.0 | 1.7 | 0.01 | 0.18 | 0.01 | 88 | 1010.8 |
| 20260507051341 | 53 | 348 | 0.0 | 1.7 | 0.01 | 0.18 | 0.01 | 88 | 1010.8 |
| 20260507050841 | 53 | 313 | 0.9 | 3.5 | 0.01 | 0.18 | 0.01 | 87 | 1011.1 |
| 20260507050341 | 53 | 309 | 0.9 | 3.5 | 0.01 | 0.18 | 0.01 | 88 | 1011.1 |
| 20260507045839 | 54 | 318 | 0.9 | 3.5 | 0.01 | 0.18 | 0.01 | 88 | 1010.8 |
| 20260507044838 | 54 | 297 | 1.7 | 4.3 | 0.01 | 0.18 | 0.01 | 89 | 1010.9 |
| 20260507044336 | 54 | 304 | 1.7 | 4.3 | 0.01 | 0.18 | 0.01 | 89 | 1010.8 |
| 20260507043337 | 54 | 311 | 0.9 | 1.7 | 0.01 | 0.18 | 0.01 | 89 | 1010.8 |
| 20260507042836 | 54 | 311 | 0.9 | 2.6 | 0.02 | 0.18 | 0.01 | 89 | 1010.8 |
| 20260507041834 | 55 | 298 | 0.9 | 2.6 | 0.02 | 0.17 | 0.00 | 88 | 1010.6 |
| 20260507040834 | 55 | 306 | 1.7 | 4.3 | 0.03 | 0.17 | 0.00 | 88 | 1010.5 |
| 20260507040334 | 55 | 302 | 1.7 | 4.3 | 0.04 | 0.17 | 0.00 | 88 | 1010.6 |
| 20260507035834 | 55 | 347 | 0.9 | 2.6 | 0.04 | 0.17 | 0.17 | 88 | 1010.5 |
| 20260507035329 | 55 | 306 | 0.9 | 7.0 | 0.04 | 0.17 | 0.17 | 88 | 1010.5 |
| 20260507034832 | 55 | 281 | 1.7 | 7.0 | 0.04 | 0.17 | 0.17 | 88 | 1010.0 |
| 20260507034329 | 55 | 298 | 2.6 | 7.0 | 0.04 | 0.17 | 0.17 | 88 | 1010.3 |
| 20260507033829 | 55 | 321 | 1.7 | 7.0 | 0.04 | 0.17 | 0.17 | 88 | 1010.1 |
| 20260507033328 | 56 | 306 | 0.9 | 2.6 | 0.04 | 0.17 | 0.17 | 89 | 1010.1 |
| 20260507032829 | 56 | 320 | 0.9 | 2.6 | 0.03 | 0.16 | 0.16 | 88 | 1010.0 |
| 20260507032329 | 56 | 316 | 0.9 | 2.6 | 0.03 | 0.16 | 0.16 | 88 | 1010.4 |
| 20260507031830 | 57 | 311 | 0.9 | 2.6 | 0.02 | 0.15 | 0.16 | 87 | 1010.3 |
| 20260507031330 | 57 | 302 | 0.9 | 2.6 | 0.01 | 0.14 | 0.14 | 87 | 1010.4 |
| 20260507030826 | 57 | 315 | 0.9 | 4.3 | 0.00 | 0.13 | 0.14 | 86 | 1010.2 |
| 20260507030326 | 57 | 13 | 0.9 | 4.3 | 0.00 | 0.13 | 0.13 | 85 | 1010.2 |
| 20260507025825 | 58 | 324 | 1.7 | 7.0 | 0.00 | 0.13 | 0.13 | 84 | 1009.9 |
| 20260507025326 | 58 | 294 | 2.6 | 7.0 | 0.00 | 0.13 | 0.13 | 83 | 1010.0 |
| 20260507024826 | 58 | 321 | 1.7 | 6.1 | 0.00 | 0.13 | 0.13 | 83 | 1010.1 |
| 20260507024325 | 58 | 347 | 1.7 | 6.1 | 0.01 | 0.13 | 0.13 | 83 | 1010.2 |
| 20260507023826 | 59 | 302 | 1.7 | 5.2 | 0.01 | 0.13 | 0.13 | 83 | 1010.2 |
| 20260507023326 | 59 | 347 | 1.7 | 7.0 | 0.01 | 0.13 | 0.13 | 84 | 1010.0 |
| 20260507022827 | 59 | 315 | 1.7 | 7.0 | 0.01 | 0.13 | 0.13 | 84 | 1010.1 |
| 20260507021814 | 59 | 295 | 1.7 | 6.1 | 0.01 | 0.13 | 0.13 | 86 | 1009.8 |
| 20260507021308 | 60 | 342 | 1.7 | 6.1 | 0.01 | 0.13 | 0.13 | 87 | 1009.7 |
| 20260507020308 | 60 | 296 | 1.7 | 6.1 | 0.01 | 0.13 | 0.13 | 87 | 1009.7 |
| 20260507015807 | 60 | 336 | 0.9 | 2.6 | 0.01 | 0.13 | 0.13 | 87 | 1010.0 |
| 20260507014804 | 60 | 294 | 1.7 | 3.5 | 0.01 | 0.13 | 0.13 | 86 | 1009.7 |
| 20260507014303 | 61 | 342 | 1.7 | 3.5 | 0.00 | 0.12 | 0.12 | 85 | 1009.6 |
| 20260507013804 | 61 | 302 | 1.7 | 6.1 | 0.00 | 0.12 | 0.12 | 85 | 1010.0 |
| 20260507013303 | 61 | 296 | 1.7 | 6.1 | 0.00 | 0.12 | 0.12 | 85 | 1009.9 |
| 20260507012802 | 62 | 302 | 2.6 | 6.1 | 0.00 | 0.12 | 0.12 | 85 | 1009.8 |
| 20260507012305 | 62 | 300 | 2.6 | 6.1 | 0.00 | 0.12 | 0.12 | 84 | 1009.9 |
| 20260507011803 | 62 | 319 | 1.7 | 3.5 | 0.00 | 0.12 | 0.12 | 83 | 1009.8 |
| 20260507011300 | 62 | 324 | 1.7 | 4.3 | 0.00 | 0.12 | 0.12 | 83 | 1010.1 |
| 20260507010801 | 62 | 304 | 1.7 | 4.3 | 0.00 | 0.12 | 0.12 | 82 | 1010.2 |
| 20260507010258 | 62 | 311 | 2.6 | 4.3 | 0.00 | 0.12 | 0.12 | 82 | 1010.0 |
| 20260507005758 | 62 | 333 | 2.6 | 5.2 | 0.00 | 0.12 | 0.12 | 82 | 1010.0 |
| 20260507005258 | 63 | 302 | 2.6 | 7.8 | 0.00 | 0.12 | 0.12 | 83 | 1009.9 |
| 20260507004758 | 63 | 302 | 2.6 | 7.8 | 0.00 | 0.12 | 0.12 | 83 | 1009.8 |
| 20260507004259 | 63 | 295 | 2.6 | 4.3 | 0.00 | 0.12 | 0.12 | 84 | 1009.9 |
| 20260507003246 | 64 | 284 | 1.7 | 6.1 | 0.00 | 0.12 | 0.12 | 88 | 1009.6 |
| 20260507002740 | 64 | 310 | 0.9 | 1.7 | 0.00 | 0.12 | 0.12 | 89 | 1009.4 |
| 20260507001221 | 64 | 271 | 0.0 | 0.9 | 0.00 | 0.12 | 0.12 | 89 | 1009.1 |
| 20260507000715 | 64 | 271 | 0.0 | 0.9 | 0.00 | 0.12 | 0.12 | 89 | 1009.0 |
| 20260506235157 | 65 | 271 | 0.0 | 0.9 | 0.00 | 0.12 | 0.12 | 87 | 1008.4 |
| 20260506234651 | 65 | 271 | 0.0 | 0.9 | 0.00 | 0.12 | 0.12 | 87 | 1008.4 |
| 20260506234145 | 65 | 271 | 0.0 | 1.7 | 0.00 | 0.12 | 0.12 | 86 | 1008.3 |
| 20260506233640 | 65 | 271 | 0.0 | 1.7 | 0.00 | 0.12 | 0.12 | 86 | 1008.4 |
| 20260506232627 | 65 | 135 | 0.0 | 0.0 | 0.00 | 0.12 | 0.12 | 86 | 1008.3 |
| 20260506232121 | 65 | 135 | 0.0 | 0.9 | 0.00 | 0.12 | 0.12 | 86 | 1008.2 |
| 20260506231110 | 66 | 135 | 0.0 | 0.0 | 0.00 | 0.12 | 0.12 | 86 | 1008.3 |
| 20260506230058 | 66 | 135 | 0.0 | 0.9 | 0.00 | 0.12 | 0.12 | 85 | 1008.2 |
| 20260506225551 | 66 | 135 | 0.0 | 1.7 | 0.00 | 0.12 | 0.12 | 85 | 1008.3 |
| 20260506225044 | 66 | 135 | 0.0 | 1.7 | 0.00 | 0.12 | 0.12 | 85 | 1008.2 |
| 20260506224543 | 66 | 135 | 0.0 | 1.7 | 0.00 | 0.12 | 0.12 | 85 | 1008.2 |
| 20260506224033 | 66 | 135 | 0.0 | 1.7 | 0.00 | 0.12 | 0.12 | 85 | 1008.2 |
| 20260506223528 | 66 | 135 | 0.0 | 0.9 | 0.00 | 0.12 | 0.12 | 85 | 1008.2 |
| 20260506223021 | 66 | 135 | 0.0 | 0.9 | 0.00 | 0.12 | 0.12 | 85 | 1008.1 |
| 20260506222515 | 66 | 135 | 0.0 | 0.9 | 0.00 | 0.12 | 0.12 | 85 | 1008.2 |
| 20260506221503 | 66 | 135 | 0.0 | 0.9 | 0.00 | 0.12 | 0.12 | 85 | 1008.2 |
| 20260506220957 | 66 | 135 | 0.0 | 0.9 | 0.00 | 0.12 | 0.12 | 85 | 1008.1 |
| 20260506215945 | 65 | 135 | 0.0 | 0.9 | 0.00 | 0.12 | 0.12 | 85 | 1008.2 |
| 20260506215440 | 65 | 135 | 0.0 | 0.9 | 0.00 | 0.12 | 0.12 | 85 | 1008.3 |
| 20260506214934 | 65 | 142 | 0.0 | 0.9 | 0.00 | 0.12 | 0.12 | 85 | 1008.1 |
| 20260506214427 | 65 | 153 | 0.0 | 1.7 | 0.00 | 0.12 | 0.12 | 85 | 1008.2 |
| 20260506213921 | 65 | 153 | 0.9 | 1.7 | 0.00 | 0.12 | 0.12 | 85 | 1008.2 |
| 20260506213415 | 65 | 180 | 0.9 | 1.7 | 0.00 | 0.12 | 0.12 | 85 | 1008.0 |
| 20260506212909 | 65 | 180 | 0.0 | 1.7 | 0.00 | 0.12 | 0.12 | 85 | 1007.9 |
| 20260506212404 | 65 | 180 | 0.9 | 1.7 | 0.00 | 0.12 | 0.12 | 84 | 1007.7 |
| 20260506210846 | 65 | 180 | 0.9 | 2.6 | 0.00 | 0.12 | 0.12 | 84 | 1007.5 |
| 20260506205834 | 66 | 137 | 0.9 | 1.7 | 0.00 | 0.12 | 0.12 | 84 | 1007.6 |
| 20260506205328 | 66 | 137 | 0.9 | 1.7 | 0.00 | 0.12 | 0.12 | 83 | 1007.5 |
| 20260506204827 | 66 | 163 | 0.9 | 3.5 | 0.00 | 0.12 | 0.12 | 83 | 1007.6 |
| 20260506204327 | 66 | 157 | 0.9 | 3.5 | 0.00 | 0.12 | 0.12 | 84 | 1007.5 |
| 20260506203827 | 66 | 167 | 0.9 | 3.5 | 0.00 | 0.12 | 0.12 | 83 | 1007.5 |
| 20260506202825 | 66 | 74 | 0.9 | 2.6 | 0.00 | 0.12 | 0.12 | 83 | 1007.7 |
| 20260506202326 | 66 | 148 | 0.9 | 2.6 | 0.00 | 0.12 | 0.12 | 84 | 1007.6 |
| 20260506201823 | 66 | 136 | 0.9 | 1.7 | 0.00 | 0.12 | 0.12 | 85 | 1007.5 |
| 20260506201322 | 66 | 107 | 0.9 | 1.7 | 0.00 | 0.12 | 0.12 | 85 | 1007.5 |
| 20260506200821 | 65 | 119 | 0.9 | 4.3 | 0.00 | 0.12 | 0.12 | 85 | 1007.5 |
| 20260506200323 | 65 | 166 | 0.9 | 4.3 | 0.00 | 0.12 | 0.12 | 84 | 1007.6 |
| 20260506195821 | 65 | 165 | 0.9 | 2.6 | 0.00 | 0.12 | 0.12 | 84 | 1007.6 |
| 20260506195322 | 65 | 184 | 0.9 | 2.6 | 0.00 | 0.12 | 0.12 | 83 | 1007.6 |
| 20260506194822 | 65 | 161 | 0.9 | 4.3 | 0.00 | 0.12 | 0.12 | 83 | 1007.6 |
| 20260506194320 | 65 | 169 | 0.9 | 4.3 | 0.00 | 0.12 | 0.12 | 84 | 1007.6 |
| 20260506193819 | 66 | 163 | 1.7 | 3.5 | 0.00 | 0.12 | 0.12 | 83 | 1007.5 |
| 20260506193321 | 66 | 184 | 1.7 | 3.5 | 0.00 | 0.12 | 0.12 | 83 | 1007.5 |
| 20260506192814 | 66 | 173 | 1.7 | 3.5 | 0.00 | 0.12 | 0.12 | 84 | 1007.5 |
| 20260506192315 | 66 | 162 | 0.9 | 3.5 | 0.00 | 0.12 | 0.12 | 84 | 1007.6 |
| 20260506191815 | 65 | 154 | 1.7 | 5.2 | 0.00 | 0.12 | 0.12 | 85 | 1007.6 |
| 20260506191314 | 65 | 171 | 1.7 | 5.2 | 0.00 | 0.12 | 0.12 | 84 | 1007.6 |
| 20260506190814 | 65 | 184 | 1.7 | 4.3 | 0.00 | 0.12 | 0.12 | 85 | 1007.7 |
| 20260506190314 | 65 | 188 | 2.6 | 5.2 | 0.00 | 0.12 | 0.12 | 84 | 1007.8 |
| 20260506185813 | 65 | 159 | 2.6 | 5.2 | 0.00 | 0.12 | 0.12 | 84 | 1007.7 |
| 20260506185314 | 65 | 198 | 2.6 | 5.2 | 0.00 | 0.12 | 0.12 | 84 | 1007.7 |
| 20260506184315 | 65 | 155 | 2.6 | 7.0 | 0.00 | 0.12 | 0.12 | 85 | 1007.8 |
| 20260506183309 | 64 | 169 | 2.6 | 7.0 | 0.00 | 0.12 | 0.12 | 86 | 1007.9 |
| 20260506182809 | 64 | 172 | 2.6 | 6.1 | 0.00 | 0.12 | 0.12 | 86 | 1007.9 |
| 20260506182311 | 64 | 144 | 2.6 | 6.1 | 0.00 | 0.12 | 0.12 | 87 | 1007.9 |
| 20260506181811 | 63 | 173 | 2.6 | 6.1 | 0.00 | 0.12 | 0.12 | 87 | 1007.9 |
| 20260506181310 | 63 | 171 | 1.7 | 4.3 | 0.00 | 0.12 | 0.12 | 88 | 1008.0 |
| 20260506180812 | 62 | 181 | 1.7 | 4.3 | 0.00 | 0.12 | 0.12 | 88 | 1008.0 |
| 20260506180310 | 62 | 88 | 2.6 | 5.2 | 0.00 | 0.12 | 0.12 | 88 | 1008.2 |
| 20260506175812 | 62 | 169 | 2.6 | 5.2 | 0.00 | 0.12 | 0.12 | 88 | 1008.2 |
| 20260506174812 | 62 | 204 | 1.7 | 4.3 | 0.00 | 0.12 | 0.12 | 89 | 1008.3 |
| 20260506174313 | 61 | 170 | 2.6 | 7.0 | 0.00 | 0.12 | 0.12 | 89 | 1008.3 |
| 20260506173809 | 61 | 189 | 2.6 | 7.0 | 0.00 | 0.12 | 0.12 | 89 | 1008.3 |
| 20260506173309 | 61 | 202 | 2.6 | 7.0 | 0.00 | 0.12 | 0.12 | 89 | 1008.2 |
| 20260506172807 | 61 | 165 | 2.6 | 7.0 | 0.00 | 0.12 | 0.12 | 89 | 1008.3 |
| 20260506172307 | 61 | 196 | 2.6 | 6.1 | 0.00 | 0.12 | 0.12 | 89 | 1008.3 |
| 20260506171304 | 60 | 184 | 2.6 | 7.8 | 0.00 | 0.12 | 0.12 | 90 | 1008.3 |
| 20260506170805 | 60 | 201 | 2.6 | 6.1 | 0.00 | 0.12 | 0.12 | 90 | 1008.3 |
| 20260506170305 | 60 | 190 | 3.5 | 7.8 | 0.00 | 0.12 | 0.12 | 90 | 1008.3 |
| 20260506165805 | 60 | 167 | 2.6 | 7.8 | 0.00 | 0.12 | 0.12 | 90 | 1008.3 |
| 20260506165305 | 60 | 155 | 2.6 | 7.8 | 0.00 | 0.12 | 0.12 | 91 | 1008.2 |
| 20260506164802 | 60 | 205 | 3.5 | 7.8 | 0.00 | 0.12 | 0.12 | 91 | 1008.2 |
| 20260506164300 | 60 | 200 | 3.5 | 7.0 | 0.00 | 0.12 | 0.12 | 91 | 1008.3 |
| 20260506163259 | 60 | 211 | 2.6 | 7.8 | 0.00 | 0.12 | 0.12 | 91 | 1008.3 |
| 20260506162758 | 59 | 196 | 3.5 | 7.8 | 0.00 | 0.12 | 0.12 | 91 | 1008.2 |
| 20260506161754 | 59 | 171 | 2.6 | 8.7 | 0.00 | 0.12 | 0.12 | 91 | 1008.5 |
| 20260506160753 | 59 | 189 | 4.3 | 8.7 | 0.01 | 0.12 | 0.12 | 91 | 1008.5 |
| 20260506160253 | 59 | 188 | 4.3 | 8.7 | 0.02 | 0.12 | 0.12 | 91 | 1008.5 |
| 20260506155754 | 59 | 212 | 4.3 | 7.8 | 0.02 | 0.12 | 0.12 | 92 | 1008.6 |
| 20260506155254 | 59 | 205 | 4.3 | 8.7 | 0.03 | 0.12 | 0.12 | 92 | 1008.5 |
| 20260506154753 | 59 | 197 | 3.5 | 8.7 | 0.03 | 0.12 | 0.12 | 92 | 1008.4 |
| 20260506154253 | 59 | 176 | 3.5 | 8.7 | 0.04 | 0.12 | 0.12 | 92 | 1008.3 |
| 20260506153754 | 59 | 174 | 4.3 | 8.7 | 0.04 | 0.12 | 0.12 | 92 | 1008.3 |
| 20260506153255 | 59 | 204 | 4.3 | 8.7 | 0.04 | 0.12 | 0.12 | 92 | 1008.4 |
| 20260506152242 | 59 | 171 | 4.3 | 11.3 | 0.04 | 0.12 | 0.12 | 92 | 1008.5 |
| 20260506151737 | 59 | 175 | 3.5 | 11.3 | 0.04 | 0.12 | 0.12 | 92 | 1008.4 |
| 20260506151230 | 59 | 180 | 3.5 | 7.0 | 0.03 | 0.11 | 0.11 | 92 | 1008.7 |
| 20260506150723 | 59 | 177 | 3.5 | 7.0 | 0.03 | 0.11 | 0.11 | 92 | 1009.0 |
| 20260506150218 | 59 | 169 | 2.6 | 7.0 | 0.02 | 0.10 | 0.10 | 92 | 1009.2 |
| 20260506145712 | 59 | 195 | 2.6 | 6.1 | 0.03 | 0.10 | 0.10 | 92 | 1009.4 |
| 20260506145212 | 59 | 173 | 3.5 | 9.6 | 0.02 | 0.09 | 0.09 | 91 | 1009.4 |
| 20260506144709 | 59 | 184 | 4.3 | 9.6 | 0.03 | 0.09 | 0.09 | 91 | 1009.4 |
| 20260506144209 | 59 | 190 | 4.3 | 8.7 | 0.02 | 0.08 | 0.08 | 91 | 1009.2 |
| 20260506143709 | 59 | 192 | 4.3 | 7.8 | 0.03 | 0.08 | 0.08 | 91 | 1009.3 |
| 20260506143209 | 59 | 190 | 4.3 | 7.8 | 0.03 | 0.08 | 0.08 | 91 | 1009.2 |
| 20260506142710 | 59 | 167 | 4.3 | 8.7 | 0.03 | 0.08 | 0.08 | 91 | 1009.1 |
| 20260506141709 | 59 | 190 | 5.2 | 13.9 | 0.04 | 0.08 | 0.08 | 91 | 1009.2 |
| 20260506141209 | 59 | 193 | 5.2 | 13.9 | 0.04 | 0.08 | 0.08 | 91 | 1009.0 |
| 20260506140710 | 59 | 202 | 3.5 | 7.8 | 0.05 | 0.08 | 0.08 | 91 | 1008.8 |
| 20260506140210 | 59 | 188 | 3.5 | 6.1 | 0.06 | 0.08 | 0.08 | 91 | 1008.8 |
| 20260506135710 | 59 | 190 | 4.3 | 7.0 | 0.05 | 0.07 | 0.07 | 91 | 1008.8 |
| 20260506134709 | 59 | 202 | 3.5 | 7.8 | 0.04 | 0.06 | 0.06 | 90 | 1009.3 |
| 20260506134210 | 59 | 187 | 3.5 | 7.8 | 0.05 | 0.06 | 0.06 | 90 | 1009.5 |
| 20260506133711 | 59 | 191 | 2.6 | 7.0 | 0.04 | 0.05 | 0.06 | 90 | 1009.5 |
| 20260506133212 | 59 | 173 | 2.6 | 6.1 | 0.05 | 0.05 | 0.05 | 90 | 1009.4 |
| 20260506132705 | 59 | 174 | 2.6 | 4.3 | 0.05 | 0.05 | 0.05 | 90 | 1009.4 |
| 20260506132159 | 59 | 186 | 2.6 | 5.2 | 0.05 | 0.05 | 0.05 | 90 | 1009.4 |
| 20260506131653 | 59 | 170 | 2.6 | 5.2 | 0.04 | 0.04 | 0.04 | 89 | 1009.4 |
| 20260506131147 | 60 | 178 | 2.6 | 5.2 | 0.04 | 0.04 | 0.04 | 89 | 1009.4 |
| 20260506130641 | 60 | 188 | 2.6 | 4.3 | 0.03 | 0.03 | 0.03 | 88 | 1009.5 |
| 20260506130135 | 60 | 159 | 1.7 | 4.3 | 0.02 | 0.02 | 0.02 | 88 | 1009.4 |
| 20260506125629 | 60 | 173 | 2.6 | 5.2 | 0.02 | 0.02 | 0.02 | 87 | 1009.4 |
| 20260506125123 | 60 | 180 | 2.6 | 6.1 | 0.02 | 0.02 | 0.02 | 87 | 1009.4 |
| 20260506124617 | 60 | 166 | 1.7 | 6.1 | 0.01 | 0.01 | 0.02 | 86 | 1009.3 |
| 20260506124114 | 60 | 198 | 1.7 | 4.3 | 0.01 | 0.01 | 0.01 | 86 | 1009.4 |
| 20260506123613 | 61 | 188 | 1.7 | 5.2 | 0.01 | 0.01 | 0.01 | 85 | 1009.4 |
| 20260506123111 | 61 | 172 | 1.7 | 5.2 | 0.00 | 0.00 | 0.00 | 84 | 1009.4 |
| 20260506122610 | 61 | 174 | 2.6 | 7.8 | 0.00 | 0.00 | 0.00 | 83 | 1009.5 |
| 20260506122112 | 62 | 167 | 2.6 | 7.8 | 0.00 | 0.00 | 0.00 | 82 | 1009.6 |
| 20260506121610 | 62 | 173 | 1.7 | 5.2 | 0.00 | 0.00 | 0.00 | 81 | 1009.6 |
| 20260506121109 | 62 | 182 | 2.6 | 5.2 | 0.00 | 0.00 | 0.00 | 80 | 1009.7 |
| 20260506120610 | 63 | 173 | 2.6 | 5.2 | 0.00 | 0.00 | 0.00 | 79 | 1009.8 |
| 20260506120109 | 63 | 176 | 2.6 | 6.1 | 0.00 | 0.00 | 0.00 | 77 | 1009.8 |
| 20260506115610 | 63 | 181 | 2.6 | 6.1 | 0.00 | 0.00 | 0.00 | 77 | 1009.8 |
| 20260506114608 | 63 | 179 | 2.6 | 6.1 | 0.00 | 0.00 | 0.00 | 77 | 1009.7 |
| 20260506114109 | 63 | 169 | 2.6 | 6.1 | 0.00 | 0.00 | 0.00 | 77 | 1009.4 |
| 20260506113606 | 63 | 173 | 2.6 | 7.8 | 0.00 | 0.00 | 0.00 | 77 | 1009.4 |
| 20260506113104 | 63 | 184 | 2.6 | 7.8 | 0.00 | 0.00 | 0.00 | 76 | 1009.3 |
| 20260506112603 | 63 | 174 | 3.5 | 7.0 | 0.00 | 0.00 | 0.00 | 76 | 1009.2 |
| 20260506111602 | 63 | 184 | 2.6 | 7.8 | 0.00 | 0.00 | 0.00 | 76 | 1009.2 |
| 20260506111102 | 63 | 196 | 2.6 | 7.0 | 0.00 | 0.00 | 0.00 | 75 | 1009.3 |
| 20260506110602 | 63 | 198 | 3.5 | 8.7 | 0.00 | 0.00 | 0.00 | 75 | 1009.2 |
| 20260506105602 | 64 | 168 | 3.5 | 9.6 | 0.00 | 0.00 | 0.00 | 74 | 1009.0 |
| 20260506105103 | 64 | 175 | 3.5 | 7.8 | 0.00 | 0.00 | 0.00 | 73 | 1009.0 |
| 20260506104603 | 64 | 167 | 3.5 | 6.1 | 0.00 | 0.00 | 0.00 | 73 | 1008.8 |
| 20260506104103 | 64 | 183 | 3.5 | 7.8 | 0.00 | 0.00 | 0.00 | 73 | 1008.6 |
| 20260506103602 | 64 | 205 | 3.5 | 9.6 | 0.00 | 0.00 | 0.00 | 72 | 1008.7 |
| 20260506102602 | 64 | 169 | 3.5 | 7.0 | 0.00 | 0.00 | 0.00 | 72 | 1008.6 |
| 20260506102101 | 64 | 176 | 3.5 | 7.0 | 0.00 | 0.00 | 0.00 | 72 | 1008.5 |
| 20260506101600 | 64 | 196 | 3.5 | 7.0 | 0.00 | 0.00 | 0.00 | 72 | 1008.5 |
| 20260506101102 | 64 | 178 | 3.5 | 7.0 | 0.00 | 0.00 | 0.00 | 72 | 1008.6 |
| 20260506100602 | 64 | 171 | 3.5 | 7.0 | 0.00 | 0.00 | 0.00 | 72 | 1008.6 |
| 20260506100058 | 64 | 173 | 3.5 | 7.8 | 0.00 | 0.00 | 0.00 | 71 | 1008.6 |
| 20260506095558 | 64 | 182 | 4.3 | 9.6 | 0.00 | 0.00 | 0.00 | 71 | 1008.6 |
| 20260506095057 | 64 | 190 | 3.5 | 9.6 | 0.00 | 0.00 | 0.00 | 71 | 1008.6 |
| 20260506094058 | 64 | 180 | 3.5 | 6.1 | 0.00 | 0.00 | 0.00 | 70 | 1008.6 |
| 20260506093556 | 64 | 178 | 3.5 | 6.1 | 0.00 | 0.00 | 0.00 | 70 | 1008.5 |
| 20260506093057 | 64 | 194 | 2.6 | 6.1 | 0.00 | 0.00 | 0.00 | 69 | 1008.6 |
| 20260506092558 | 65 | 163 | 2.6 | 5.2 | 0.00 | 0.00 | 0.00 | 69 | 1008.4 |